Time;durP1;ratioP1;P1;durP2;ratioP2;P2;SDS_P1;SDS_P2;PMS_P1;PMS_P2;Temp;Humidity;BMP_temperature;BMP_pressure;BME280_temperature;BME280_humidity;BME280_pressure;Samples;Min_cycle;Max_cycle;Signal;HPM_P1;HPM_P2
2022/09/05 00:01:07;;;;;;;0.00;0.00;;;;;;;;;;5012652;28;20042;-82
2022/09/05 00:03:44;;;;;;;0.00;0.00;;;;;;;;;;5012723;28;20045;-82
2022/09/05 00:06:11;;;;;;;0.00;0.00;;;;;;;;;;5011355;28;20053;-90
2022/09/05 00:09:01;;;;;;;0.00;0.00;;;;;;;;;;5012314;28;20038;-82
2022/09/05 00:11:33;;;;;;;0.00;0.00;;;;;;;;;;5011015;28;20050;-82
2022/09/05 00:14:03;;;;;;;0.00;0.00;;;;;;;;;;5012688;28;20057;-82
2022/09/05 00:16:49;;;;;;;0.00;0.00;;;;;;;;;;5011580;28;20128;-82
2022/09/05 00:19:36;;;;;;;0.00;0.00;;;;;;;;;;5013008;28;20049;-82
2022/09/05 00:22:21;;;;;;;0.00;0.00;;;;;;;;;;5015666;28;20509;-82
2022/09/05 00:24:47;;;;;;;0.00;0.00;;;;;;;;;;5015845;28;20048;-81
2022/09/05 00:27:22;;;;;;;0.00;0.00;;;;;;;;;;5015797;28;20125;-82
2022/09/05 00:30:10;;;;;;;0.00;0.00;;;;;;;;;;5014843;28;20469;-82
2022/09/05 00:32:52;;;;;;;0.00;0.00;;;;;;;;;;5015526;28;20042;-83
2022/09/05 00:35:37;;;;;;;0.00;0.00;;;;;;;;;;5015944;28;20064;-82
2022/09/05 00:38:12;;;;;;;0.00;0.00;;;;;;;;;;5014166;28;20050;-83
2022/09/05 00:40:53;;;;;;;0.00;0.00;;;;;;;;;;5014370;28;20129;-82
2022/09/05 00:43:21;;;;;;;0.00;0.00;;;;;;;;;;5014081;28;20084;-82
2022/09/05 00:45:52;;;;;;;0.00;0.00;;;;;;;;;;4998237;28;20045;-82
2022/09/05 00:48:23;;;;;;;0.00;0.00;;;;;;;;;;5015346;28;20465;-82
2022/09/05 00:50:58;;;;;;;0.00;0.00;;;;;;;;;;5014373;28;20054;-83
2022/09/05 00:53:24;;;;;;;0.00;0.00;;;;;;;;;;5015249;28;20034;-82
2022/09/05 00:55:55;;;;;;;0.00;0.00;;;;;;;;;;5015352;28;20049;-82
2022/09/05 00:58:45;;;;;;;0.00;0.00;;;;;;;;;;5015315;28;20077;-82
2022/09/05 01:01:29;;;;;;;0.00;0.00;;;;;;;;;;5015515;28;20465;-81
2022/09/05 01:04:05;;;;;;;0.00;0.00;;;;;;;;;;5015198;28;20075;-82
2022/09/05 01:06:37;;;;;;;0.00;0.00;;;;;;;;;;5013738;28;20053;-83
2022/09/05 01:09:03;;;;;;;0.00;0.00;;;;;;;;;;5013730;28;20153;-83
2022/09/05 01:11:44;;;;;;;0.00;0.00;;;;;;;;;;5014960;28;20081;-82
2022/09/05 01:14:22;;;;;;;0.00;0.00;;;;;;;;;;5015177;28;20048;-83
2022/09/05 01:17:08;;;;;;;0.00;0.00;;;;;;;;;;5013662;28;20050;-82
2022/09/05 01:19:43;;;;;;;0.00;0.00;;;;;;;;;;4997624;28;20505;-82
2022/09/05 01:22:26;;;;;;;0.00;0.00;;;;;;;;;;4997286;28;20068;-82
2022/09/05 01:25:10;;;;;;;0.00;0.00;;;;;;;;;;5015009;28;20037;-82
2022/09/05 01:27:36;;;;;;;0.00;0.00;;;;;;;;;;5013408;28;20041;-82
2022/09/05 01:30:13;;;;;;;0.00;0.00;;;;;;;;;;5014793;28;20121;-81
2022/09/05 01:32:51;;;;;;;0.00;0.00;;;;;;;;;;5012413;28;20034;-82
2022/09/05 01:35:36;;;;;;;0.00;0.00;;;;;;;;;;5014809;28;20037;-82
2022/09/05 01:38:25;;;;;;;0.00;0.00;;;;;;;;;;5014583;28;20046;-82
2022/09/05 01:40:57;;;;;;;0.00;0.00;;;;;;;;;;5006055;28;20081;-82
2022/09/05 01:43:42;;;;;;;0.00;0.00;;;;;;;;;;5012865;28;20045;-82
2022/09/05 01:46:17;;;;;;;0.00;0.00;;;;;;;;;;5012961;28;20052;-82
2022/09/05 01:48:48;;;;;;;0.00;0.00;;;;;;;;;;5013128;28;20049;-82
2022/09/05 01:51:23;;;;;;;0.00;0.00;;;;;;;;;;5013320;28;20045;-83
2022/09/05 01:53:52;;;;;;;0.00;0.00;;;;;;;;;;5014346;28;20049;-82
2022/09/05 01:56:29;;;;;;;0.00;0.00;;;;;;;;;;5014432;28;20034;-82
2022/09/05 01:59:13;;;;;;;0.00;0.00;;;;;;;;;;5013019;28;20042;-82
2022/09/05 02:01:39;;;;;;;0.00;0.00;;;;;;;;;;5014338;28;20045;-83
2022/09/05 02:04:20;;;;;;;0.00;0.00;;;;;;;;;;5013870;28;20037;-83
2022/09/05 02:06:56;;;;;;;0.00;0.00;;;;;;;;;;5012662;28;20045;-82
2022/09/05 02:09:29;;;;;;;0.00;0.00;;;;;;;;;;5012553;28;20458;-82
2022/09/05 02:11:56;;;;;;;0.00;0.00;;;;;;;;;;5013890;28;20069;-83
2022/09/05 02:14:22;;;;;;;0.00;0.00;;;;;;;;;;5013895;28;20093;-83
2022/09/05 02:16:48;;;;;;;0.00;0.00;;;;;;;;;;5014116;28;20045;-83
2022/09/05 02:19:20;;;;;;;0.00;0.00;;;;;;;;;;5012518;28;20085;-82
2022/09/05 02:21:52;;;;;;;0.00;0.00;;;;;;;;;;5012733;28;20038;-82
2022/09/05 02:24:30;;;;;;;0.00;0.00;;;;;;;;;;5013467;28;20038;-82
2022/09/05 02:27:07;;;;;;;0.00;0.00;;;;;;;;;;5013913;28;20042;-82
2022/09/05 02:29:42;;;;;;;0.10;0.00;;;;;;;;;;5012432;28;20535;-82
2022/09/05 02:32:12;;;;;;;0.00;0.00;;;;;;;;;;5012251;28;20042;-82
2022/09/05 02:34:50;;;;;;;0.00;0.00;;;;;;;;;;5012282;28;20419;-82
2022/09/05 02:37:22;;;;;;;0.00;0.00;;;;;;;;;;5013548;28;20042;-82
2022/09/05 02:39:56;;;;;;;0.00;0.00;;;;;;;;;;5013512;28;20042;-83
2022/09/05 02:42:41;;;;;;;0.00;0.00;;;;;;;;;;5012023;28;20053;-81
2022/09/05 02:45:25;;;;;;;0.00;0.00;;;;;;;;;;5013625;28;20045;-82
2022/09/05 02:47:56;;;;;;;0.00;0.00;;;;;;;;;;5011864;28;20085;-82
2022/09/05 02:50:38;;;;;;;0.00;0.00;;;;;;;;;;5012035;28;20053;-82
2022/09/05 02:53:04;;;;;;;0.00;0.00;;;;;;;;;;5012965;28;20470;-82
2022/09/05 02:55:30;;;;;;;0.00;0.00;;;;;;;;;;5012269;28;20100;-81
2022/09/05 02:58:17;;;;;;;0.00;0.00;;;;;;;;;;5013216;28;20077;-82
2022/09/05 03:01:09;;;;;;;0.00;0.00;;;;;;;;;;5013055;28;20046;-82
2022/09/05 03:03:57;;;;;;;0.00;0.00;;;;;;;;;;5010594;28;20061;-82
2022/09/05 03:06:31;;;;;;;0.00;0.00;;;;;;;;;;5013290;28;20046;-82
2022/09/05 03:09:03;;;;;;;0.00;0.00;;;;;;;;;;5011959;28;20077;-82
2022/09/05 03:11:32;;;;;;;0.00;0.00;;;;;;;;;;5011606;28;20051;-82
2022/09/05 03:14:11;;;;;;;0.00;0.00;;;;;;;;;;5013037;28;20133;-82
2022/09/05 03:16:49;;;;;;;0.00;0.00;;;;;;;;;;5011759;28;20046;-81
2022/09/05 03:19:50;;;;;;;0.00;0.00;;;;;;;;;;5011503;28;20048;-82
2022/09/05 03:22:35;;;;;;;0.00;0.00;;;;;;;;;;4955514;28;20039;-82
2022/09/05 03:25:28;;;;;;;0.00;0.00;;;;;;;;;;5007655;28;20570;-82
2022/09/05 03:28:12;;;;;;;0.00;0.00;;;;;;;;;;4997286;28;20313;-82
2022/09/05 03:30:50;;;;;;;0.00;0.00;;;;;;;;;;5013048;28;20053;-82
2022/09/05 03:33:46;;;;;;;0.00;0.00;;;;;;;;;;5012820;28;20077;-82
2022/09/05 03:36:30;;;;;;;0.00;0.00;;;;;;;;;;5004300;28;20076;-82
2022/09/05 03:39:01;;;;;;;0.00;0.00;;;;;;;;;;5011379;28;20049;-82
2022/09/05 03:41:49;;;;;;;0.00;0.00;;;;;;;;;;5012973;28;20037;-82
2022/09/05 03:44:18;;;;;;;0.00;0.00;;;;;;;;;;5011323;28;20049;-82
2022/09/05 03:46:51;;;;;;;0.00;0.00;;;;;;;;;;5011545;28;20038;-82
2022/09/05 03:49:24;;;;;;;0.00;0.00;;;;;;;;;;5012619;28;20076;-82
2022/09/05 03:51:50;;;;;;;0.00;0.00;;;;;;;;;;5011682;28;20112;-82
2022/09/05 03:54:25;;;;;;;0.00;0.00;;;;;;;;;;5011840;28;20077;-82
2022/09/05 03:57:10;;;;;;;0.00;0.00;;;;;;;;;;5016659;28;20042;-82
2022/09/05 03:59:54;;;;;;;0.00;0.00;;;;;;;;;;4998877;28;20399;-82
2022/09/05 04:02:28;;;;;;;0.00;0.00;;;;;;;;;;5016487;28;20077;-82
2022/09/05 04:04:54;;;;;;;0.00;0.00;;;;;;;;;;5015990;28;20483;-82
2022/09/05 04:07:23;;;;;;;0.00;0.00;;;;;;;;;;5016223;28;20045;-82
2022/09/05 04:09:55;;;;;;;0.00;0.00;;;;;;;;;;5014904;28;20049;-82
2022/09/05 04:12:25;;;;;;;0.00;0.00;;;;;;;;;;5014579;28;20058;-82
2022/09/05 04:14:57;;;;;;;0.00;0.00;;;;;;;;;;5014594;28;20050;-82
2022/09/05 04:17:34;;;;;;;0.00;0.00;;;;;;;;;;5016264;28;20046;-82
2022/09/05 04:20:19;;;;;;;0.00;0.00;;;;;;;;;;5014551;28;20077;-82
2022/09/05 04:23:00;;;;;;;0.00;0.00;;;;;;;;;;5015827;28;20042;-82
2022/09/05 04:25:29;;;;;;;0.00;0.00;;;;;;;;;;5014630;28;20501;-82
2022/09/05 04:28:10;;;;;;;0.00;0.00;;;;;;;;;;5015974;28;20038;-82
2022/09/05 04:30:41;;;;;;;0.00;0.00;;;;;;;;;;5015684;28;20034;-82
2022/09/05 04:33:18;;;;;;;0.00;0.00;;;;;;;;;;5014410;28;20121;-82
2022/09/05 04:35:44;;;;;;;0.00;0.00;;;;;;;;;;5015749;28;20041;-82
2022/09/05 04:38:12;;;;;;;0.00;0.00;;;;;;;;;;5014468;28;20073;-82
2022/09/05 04:40:49;;;;;;;0.00;0.00;;;;;;;;;;5014366;28;20513;-82
2022/09/05 04:43:20;;;;;;;0.00;0.00;;;;;;;;;;5015496;28;20393;-81
2022/09/05 04:45:59;;;;;;;0.00;0.00;;;;;;;;;;4997892;28;20045;-82
2022/09/05 04:48:34;;;;;;;0.00;0.00;;;;;;;;;;5014120;28;20128;-84
2022/09/05 04:51:03;;;;;;;0.00;0.00;;;;;;;;;;5015384;28;20244;-82
2022/09/05 04:53:36;;;;;;;0.00;0.00;;;;;;;;;;5015249;28;20052;-83
2022/09/05 04:56:05;;;;;;;0.00;0.00;;;;;;;;;;5015301;28;20472;-83
2022/09/05 04:58:43;;;;;;;0.00;0.00;;;;;;;;;;5015498;28;20050;-81
2022/09/05 05:01:14;;;;;;;0.00;0.00;;;;;;;;;;5015246;28;20100;-82
2022/09/05 05:03:41;;;;;;;0.00;0.00;;;;;;;;;;5015365;28;20394;-83
2022/09/05 05:06:29;;;;;;;0.00;0.00;;;;;;;;;;5013308;28;20041;-83
2022/09/05 05:08:57;;;;;;;0.00;0.00;;;;;;;;;;5015140;28;20041;-82
2022/09/05 05:11:45;;;;;;;0.00;0.00;;;;;;;;;;5014787;28;20049;-83
2022/09/05 05:14:23;;;;;;;0.00;0.00;;;;;;;;;;5014917;28;20081;-82
2022/09/05 05:16:59;;;;;;;0.00;0.00;;;;;;;;;;5014795;28;20077;-82
2022/09/05 05:19:33;;;;;;;0.00;0.00;;;;;;;;;;5014760;28;20038;-82
2022/09/05 05:22:02;;;;;;;0.00;0.00;;;;;;;;;;5014886;28;20049;-82
2022/09/05 05:24:33;;;;;;;0.00;0.00;;;;;;;;;;5013505;28;20493;-82
2022/09/05 05:27:04;;;;;;;0.00;0.00;;;;;;;;;;5014783;28;20069;-86
2022/09/05 05:29:39;;;;;;;0.00;0.00;;;;;;;;;;5014386;28;20494;-82
2022/09/05 05:32:06;;;;;;;0.00;0.00;;;;;;;;;;5013578;28;20097;-83
2022/09/05 05:34:34;;;;;;;0.00;0.00;;;;;;;;;;5014443;28;20045;-82
2022/09/05 05:37:03;;;;;;;0.00;0.00;;;;;;;;;;5014896;28;20041;-83
2022/09/05 05:39:30;;;;;;;0.00;0.00;;;;;;;;;;5012987;28;20097;-83
2022/09/05 05:41:57;;;;;;;0.00;0.00;;;;;;;;;;5013359;28;20038;-83
2022/09/05 05:44:27;;;;;;;0.00;0.00;;;;;;;;;;5014457;28;20042;-82
2022/09/05 05:47:05;;;;;;;0.00;0.00;;;;;;;;;;5014481;28;20049;-83
2022/09/05 05:49:50;;;;;;;0.00;0.00;;;;;;;;;;5013110;28;20080;-82
2022/09/05 05:52:22;;;;;;;0.00;0.00;;;;;;;;;;5012849;28;20042;-82
2022/09/05 05:54:57;;;;;;;0.00;0.00;;;;;;;;;;5012746;28;20045;-87
2022/09/05 05:57:34;;;;;;;0.00;0.00;;;;;;;;;;5013339;28;20512;-83
2022/09/05 06:00:04;;;;;;;0.00;0.00;;;;;;;;;;5012683;28;20050;-83
2022/09/05 06:02:43;;;;;;;0.00;0.00;;;;;;;;;;5012986;28;20485;-84
2022/09/05 06:05:28;;;;;;;0.00;0.00;;;;;;;;;;5012621;28;20572;-83
2022/09/05 06:08:13;;;;;;;0.00;0.00;;;;;;;;;;5013665;28;20046;-85
2022/09/05 06:10:51;;;;;;;0.00;0.00;;;;;;;;;;5012101;28;20048;-84
2022/09/05 06:13:20;;;;;;;0.00;0.00;;;;;;;;;;5013331;28;20135;-84
2022/09/05 06:15:53;;;;;;;0.00;0.00;;;;;;;;;;5013449;28;20042;-83
2022/09/05 06:18:40;;;;;;;0.00;0.00;;;;;;;;;;4995058;28;20057;-84
2022/09/05 06:21:14;;;;;;;0.00;0.00;;;;;;;;;;5013337;28;20038;-83
2022/09/05 06:24:06;;;;;;;0.00;0.00;;;;;;;;;;5013629;28;20362;-84
2022/09/05 06:26:35;;;;;;;0.00;0.00;;;;;;;;;;5013134;28;20052;-83
2022/09/05 06:29:01;;;;;;;0.00;0.00;;;;;;;;;;5012331;28;20397;-83
2022/09/05 06:31:36;;;;;;;0.00;0.00;;;;;;;;;;5011524;28;20042;-83
2022/09/05 06:34:08;;;;;;;0.00;0.00;;;;;;;;;;5013302;28;20452;-84
2022/09/05 06:36:43;;;;;;;0.00;0.00;;;;;;;;;;5011929;28;20485;-84
2022/09/05 06:39:21;;;;;;;0.00;0.00;;;;;;;;;;5012220;28;20049;-84
2022/09/05 06:41:50;;;;;;;0.00;0.00;;;;;;;;;;5011775;28;20058;-84
2022/09/05 06:44:36;;;;;;;0.00;0.00;;;;;;;;;;5011747;28;20049;-83
2022/09/05 06:47:09;;;;;;;0.80;0.00;;;;;;;;;;5012727;28;20042;-84
2022/09/05 06:49:58;;;;;;;0.00;0.00;;;;;;;;;;5012988;28;20104;-84
2022/09/05 06:52:36;;;;;;;0.00;0.00;;;;;;;;;;5004982;28;20077;-83
2022/09/05 06:55:21;;;;;;;0.00;0.00;;;;;;;;;;5012484;28;20038;-83
2022/09/05 06:57:53;;;;;;;0.00;0.00;;;;;;;;;;5013092;28;20107;-84
2022/09/05 07:00:22;;;;;;;0.00;0.00;;;;;;;;;;5011052;28;20096;-84
2022/09/05 07:02:48;;;;;;;0.00;0.00;;;;;;;;;;5011590;28;20536;-84
2022/09/05 07:05:33;;;;;;;0.05;0.00;;;;;;;;;;5011093;28;20073;-84
2022/09/05 07:08:29;;;;;;;0.00;0.00;;;;;;;;;;5013026;28;20092;-84
2022/09/05 07:10:55;;;;;;;;;;;;;;;;;;5010728;28;20498;-83
2022/09/05 07:13:30;;;;;;;0.00;0.00;;;;;;;;;;5011577;28;19964;-81
2022/09/05 07:16:07;;;;;;;0.00;0.00;;;;;;;;;;5011702;28;20486;-87
2022/09/05 07:18:39;;;;;;;0.00;0.00;;;;;;;;;;5013170;28;20046;-86
2022/09/05 07:21:07;;;;;;;0.00;0.00;;;;;;;;;;5012757;28;20041;-87
2022/09/05 07:23:45;;;;;;;0.00;0.00;;;;;;;;;;5011612;28;20042;-86
2022/09/05 07:26:11;;;;;;;0.00;0.00;;;;;;;;;;5013021;28;20038;-87
2022/09/05 07:28:42;;;;;;;0.00;0.00;;;;;;;;;;5014462;28;20066;-86
2022/09/05 07:31:22;;;;;;;0.00;0.00;;;;;;;;;;5015727;28;20054;-86
2022/09/05 07:33:49;;;;;;;0.00;0.00;;;;;;;;;;5015792;28;20520;-85
2022/09/05 07:36:17;;;;;;;0.00;0.00;;;;;;;;;;5016792;28;20099;-84
2022/09/05 07:38:44;;;;;;;0.00;0.00;;;;;;;;;;5015755;28;20050;-86
2022/09/05 07:41:17;;;;;;;0.00;0.00;;;;;;;;;;5015217;28;20077;-86
2022/09/05 07:43:46;;;;;;;0.00;0.00;;;;;;;;;;5017000;28;20050;-85
2022/09/05 07:46:15;;;;;;;0.00;0.00;;;;;;;;;;5016396;28;20046;-82
2022/09/05 07:48:47;;;;;;;0.00;0.00;;;;;;;;;;5015782;28;20409;-87
2022/09/05 07:51:23;;;;;;;0.00;0.00;;;;;;;;;;5017814;28;20034;-85
2022/09/05 07:53:51;;;;;;;0.00;0.00;;;;;;;;;;5015193;28;20038;-84
2022/09/05 07:56:37;;;;;;;0.00;0.00;;;;;;;;;;5015340;28;20129;-85
2022/09/05 07:59:07;;;;;;;0.00;0.00;;;;;;;;;;5015578;28;20504;-85
2022/09/05 08:01:34;;;;;;;0.00;0.00;;;;;;;;;;4998812;28;20169;-85
2022/09/05 08:04:00;;;;;;;0.00;0.00;;;;;;;;;;5015532;28;20046;-85
2022/09/05 08:06:26;;;;;;;0.00;0.00;;;;;;;;;;5016254;28;20048;-85
2022/09/05 08:08:59;;;;;;;0.00;0.00;;;;;;;;;;5016097;28;20401;-85
2022/09/05 08:11:27;;;;;;;0.00;0.00;;;;;;;;;;5015388;28;20104;-83
2022/09/05 08:13:56;;;;;;;0.00;0.00;;;;;;;;;;5014112;28;20034;-85
2022/09/05 08:16:23;;;;;;;0.00;0.00;;;;;;;;;;5015487;28;20034;-87
2022/09/05 08:18:49;;;;;;;0.00;0.00;;;;;;;;;;5014133;28;20041;-86
2022/09/05 08:21:22;;;;;;;0.00;0.00;;;;;;;;;;5014379;28;20069;-86
2022/09/05 08:23:54;;;;;;;0.00;0.00;;;;;;;;;;5015925;28;20524;-85
2022/09/05 08:26:40;;;;;;;0.00;0.00;;;;;;;;;;5015713;28;20121;-86
2022/09/05 08:29:22;;;;;;;0.00;0.00;;;;;;;;;;5005730;28;20053;-86
2022/09/05 08:31:51;;;;;;;0.00;0.00;;;;;;;;;;5015648;28;20073;-85
2022/09/05 08:34:28;;;;;;;0.00;0.00;;;;;;;;;;5011781;28;20050;-85
2022/09/05 08:36:55;;;;;;;0.05;0.00;;;;;;;;;;5008394;28;20125;-84
2022/09/05 08:39:23;;;;;;;0.00;0.00;;;;;;;;;;4996073;28;20205;-85
2022/09/05 08:42:07;;;;;;;0.00;0.00;;;;;;;;;;4995026;28;20046;-85
2022/09/05 08:44:40;;;;;;;0.00;0.00;;;;;;;;;;4996429;28;20042;-86
2022/09/05 08:47:29;;;;;;;0.00;0.00;;;;;;;;;;4994586;28;20085;-85
2022/09/05 08:50:20;;;;;;;0.00;0.00;;;;;;;;;;5003556;28;20085;-84
2022/09/05 08:53:02;;;;;;;0.00;0.00;;;;;;;;;;4994408;28;20553;-84
2022/09/05 08:55:33;;;;;;;0.00;0.00;;;;;;;;;;4995861;28;20049;-85
2022/09/05 08:58:03;;;;;;;0.00;0.00;;;;;;;;;;4995523;28;20088;-84
2022/09/05 09:00:34;;;;;;;0.00;0.00;;;;;;;;;;4994353;28;20054;-85
2022/09/05 09:03:15;;;;;;;0.00;0.00;;;;;;;;;;4995474;28;20533;-84
2022/09/05 09:06:05;;;;;;;0.00;0.00;;;;;;;;;;4994260;28;20140;-84
2022/09/05 09:08:50;;;;;;;0.00;0.00;;;;;;;;;;4995562;28;20406;-83
2022/09/05 09:11:30;;;;;;;0.00;0.00;;;;;;;;;;4994203;28;20471;-86
2022/09/05 09:14:15;;;;;;;0.00;0.00;;;;;;;;;;4994340;28;20174;-85
2022/09/05 09:16:53;;;;;;;0.00;0.00;;;;;;;;;;4995097;28;20486;-84
2022/09/05 09:19:30;;;;;;;0.00;0.00;;;;;;;;;;4995331;28;20041;-83
2022/09/05 09:22:06;;;;;;;0.00;0.00;;;;;;;;;;4995278;28;20070;-89
2022/09/05 09:24:36;;;;;;;0.00;0.00;;;;;;;;;;4994264;28;20042;-84
2022/09/05 09:27:17;;;;;;;0.00;0.00;;;;;;;;;;4993771;28;20046;-86
2022/09/05 09:29:43;;;;;;;0.00;0.00;;;;;;;;;;4995053;28;20494;-85
2022/09/05 09:32:21;;;;;;;0.00;0.00;;;;;;;;;;4995030;28;20038;-85
2022/09/05 09:34:52;;;;;;;0.00;0.00;;;;;;;;;;4993935;28;20535;-85
2022/09/05 09:37:37;;;;;;;0.00;0.00;;;;;;;;;;4993424;28;20046;-84
2022/09/05 09:40:15;;;;;;;0.00;0.00;;;;;;;;;;4994096;28;20038;-84
2022/09/05 09:43:04;;;;;;;0.00;0.00;;;;;;;;;;4993287;28;20281;-84
2022/09/05 09:45:37;;;;;;;0.00;0.00;;;;;;;;;;4993498;28;20069;-83
2022/09/05 09:48:06;;;;;;;0.00;0.00;;;;;;;;;;4977623;28;20046;-91
2022/09/05 09:50:51;;;;;;;0.03;0.00;;;;;;;;;;4993755;28;20078;-82
2022/09/05 09:53:20;;;;;;;0.00;0.00;;;;;;;;;;4992304;28;20097;-85
2022/09/05 09:55:46;;;;;;;0.00;0.00;;;;;;;;;;4994570;28;20046;-86
2022/09/05 09:58:12;;;;;;;0.00;0.00;;;;;;;;;;4994417;28;20379;-85
2022/09/05 10:00:41;;;;;;;0.00;0.00;;;;;;;;;;4994750;28;20046;-85
2022/09/05 10:03:07;;;;;;;0.00;0.00;;;;;;;;;;4992828;28;20121;-85
2022/09/05 10:05:46;;;;;;;0.00;0.00;;;;;;;;;;4994506;28;20117;-84
2022/09/05 10:08:14;;;;;;;0.00;0.00;;;;;;;;;;4995251;28;20042;-92
2022/09/05 10:10:59;;;;;;;0.00;0.00;;;;;;;;;;4998806;28;20478;-89
2022/09/05 10:13:32;;;;;;;0.00;0.00;;;;;;;;;;5117086;27;20372;-91
2022/09/05 10:16:13;;;;;;;0.00;0.00;;;;;;;;;;5112186;28;20069;-92
2022/09/05 10:18:58;;;;;;;0.00;0.00;;;;;;;;;;5111283;28;20116;-91
2022/09/05 10:21:30;;;;;;;0.00;0.00;;;;;;;;;;5111644;28;20066;-92
2022/09/05 10:24:09;;;;;;;0.00;0.00;;;;;;;;;;5109384;28;20312;-92
2022/09/05 10:26:55;;;;;;;0.00;0.00;;;;;;;;;;5110142;28;20044;-91
2022/09/05 10:29:20;;;;;;;;;;;;;;;;;;5110629;28;20046;-92
2022/09/05 10:31:55;;;;;;;0.00;0.00;;;;;;;;;;5110803;28;19920;-92
2022/09/05 10:34:29;;;;;;;0.00;0.00;;;;;;;;;;5109391;28;20039;-90
2022/09/05 10:37:03;;;;;;;0.00;0.00;;;;;;;;;;5110554;28;20086;-91
2022/09/05 10:39:32;;;;;;;0.00;0.00;;;;;;;;;;5110349;28;20071;-89
2022/09/05 10:42:03;;;;;;;0.00;0.00;;;;;;;;;;5108812;28;20051;-89
2022/09/05 10:44:42;;;;;;;0.00;0.00;;;;;;;;;;5108697;28;20504;-90
2022/09/05 10:47:27;;;;;;;0.00;0.00;;;;;;;;;;5110262;28;20495;-87
2022/09/05 10:50:02;;;;;;;0.00;0.00;;;;;;;;;;5108818;28;20043;-89
2022/09/05 10:52:35;;;;;;;0.00;0.00;;;;;;;;;;5108441;28;20507;-90
2022/09/05 10:55:20;;;;;;;0.00;0.00;;;;;;;;;;5109635;28;20043;-89
2022/09/05 11:00:47;;;;;;;0.00;0.00;;;;;;;;;;5068946;28;20049;-89
2022/09/05 11:03:21;;;;;;;0.00;0.00;;;;;;;;;;5224226;22;20916;-89
2022/09/05 11:06:08;;;;;;;0.00;0.00;;;;;;;;;;5179505;22;20055;-87
2022/09/05 11:09:02;;;;;;;0.00;0.00;;;;;;;;;;5101787;28;20052;-91
2022/09/05 11:11:31;;;;;;;0.00;0.00;;;;;;;;;;5098450;28;20104;-91
2022/09/05 11:14:19;;;;;;;0.00;0.00;;;;;;;;;;5128962;22;20314;-93
2022/09/05 11:16:50;;;;;;;0.00;0.00;;;;;;;;;;5039389;28;20056;-89
2022/09/05 11:21:52;;;;;;;0.00;0.00;;;;;;;;;;5034762;28;20096;-92
2022/09/05 11:24:37;;;;;;;0.00;0.00;;;;;;;;;;5181660;23;20055;-89
2022/09/05 11:27:06;;;;;;;0.00;0.00;;;;;;;;;;5056051;28;20047;-91
2022/09/05 11:29:41;;;;;;;0.00;0.00;;;;;;;;;;5054768;28;20483;-91
2022/09/05 11:32:07;;;;;;;;;;;;;;;;;;5054748;28;20059;-92
2022/09/05 11:34:40;;;;;;;0.00;0.00;;;;;;;;;;5037885;28;19999;-90
2022/09/05 11:37:13;;;;;;;0.00;0.00;;;;;;;;;;5055493;28;20120;-91
2022/09/05 11:40:02;;;;;;;0.00;0.00;;;;;;;;;;5059645;28;20052;-95
2022/09/05 11:42:47;;;;;;;0.00;0.00;;;;;;;;;;5037001;28;20052;-91
2022/09/05 11:45:16;;;;;;;0.00;0.00;;;;;;;;;;5063057;28;20060;-88
2022/09/05 11:48:12;;;;;;;0.00;0.00;;;;;;;;;;5165161;22;20635;-91
2022/09/05 11:50:38;;;;;;;0.00;0.00;;;;;;;;;;5018902;28;20103;-90
2022/09/05 11:53:23;;;;;;;0.00;0.00;;;;;;;;;;5017470;28;20496;-91
2022/09/05 11:56:17;;;;;;;0.10;0.10;;;;;;;;;;5035225;28;20479;-87
2022/09/05 11:59:06;;;;;;;0.00;0.00;;;;;;;;;;5035586;28;20037;-89
2022/09/05 12:01:46;;;;;;;0.00;0.00;;;;;;;;;;5035914;28;20392;-91
2022/09/05 12:04:13;;;;;;;0.00;0.00;;;;;;;;;;5037469;28;20049;-88
2022/09/05 12:06:43;;;;;;;0.00;0.00;;;;;;;;;;5037858;28;20041;-91
2022/09/05 12:09:15;;;;;;;0.00;0.00;;;;;;;;;;5017944;28;20136;-92
2022/09/05 12:11:50;;;;;;;0.00;0.00;;;;;;;;;;5017605;28;20140;-90
2022/09/05 12:14:30;;;;;;;0.00;0.00;;;;;;;;;;5017557;28;20048;-91
2022/09/05 12:17:01;;;;;;;0.00;0.00;;;;;;;;;;5035681;28;20200;-93
2022/09/05 12:19:33;;;;;;;0.00;0.00;;;;;;;;;;5017630;28;20045;-90
2022/09/05 12:22:02;;;;;;;0.00;0.00;;;;;;;;;;5036283;28;20120;-93
2022/09/05 12:24:31;;;;;;;0.00;0.00;;;;;;;;;;5035515;28;20046;-94
2022/09/05 12:27:02;;;;;;;0.00;0.00;;;;;;;;;;5017677;28;20124;-93
2022/09/05 12:29:33;;;;;;;0.00;0.00;;;;;;;;;;5035331;28;20507;-93
2022/09/05 12:31:59;;;;;;;0.00;0.00;;;;;;;;;;5017748;28;20048;-89
2022/09/05 12:34:51;;;;;;;0.00;0.00;;;;;;;;;;5016941;28;20049;-88
2022/09/05 12:37:23;;;;;;;0.00;0.00;;;;;;;;;;5016475;28;20091;-87
2022/09/05 12:39:52;;;;;;;0.00;0.00;;;;;;;;;;5016290;28;20043;-88
2022/09/05 12:42:27;;;;;;;0.00;0.00;;;;;;;;;;5034376;28;20037;-88
2022/09/05 12:45:12;;;;;;;0.00;0.00;;;;;;;;;;5016351;28;20484;-87
2022/09/05 12:47:55;;;;;;;0.00;0.00;;;;;;;;;;5033961;28;20057;-87
2022/09/05 12:50:24;;;;;;;0.00;0.00;;;;;;;;;;5016344;28;20049;-88
2022/09/05 12:52:52;;;;;;;0.00;0.00;;;;;;;;;;5016286;28;20045;-89
2022/09/05 12:55:32;;;;;;;0.00;0.00;;;;;;;;;;5016075;28;20038;-88
2022/09/05 12:58:00;;;;;;;0.00;0.00;;;;;;;;;;5016392;28;20048;-88
2022/09/05 13:00:27;;;;;;;0.00;0.00;;;;;;;;;;5033890;28;20037;-90
2022/09/05 13:02:57;;;;;;;0.00;0.00;;;;;;;;;;5016801;28;20099;-86
2022/09/05 13:05:26;;;;;;;0.00;0.00;;;;;;;;;;5018769;28;20049;-88
2022/09/05 13:07:58;;;;;;;0.00;0.00;;;;;;;;;;5025639;28;20141;-88
2022/09/05 13:10:32;;;;;;;0.00;0.00;;;;;;;;;;5018601;28;20073;-89
2022/09/05 13:13:01;;;;;;;0.00;0.00;;;;;;;;;;4999927;28;20072;-90
2022/09/05 13:15:37;;;;;;;0.00;0.00;;;;;;;;;;5016084;28;20041;-90
2022/09/05 13:18:07;;;;;;;0.00;0.00;;;;;;;;;;5033836;28;20399;-91
2022/09/05 13:20:44;;;;;;;0.00;0.00;;;;;;;;;;5015997;28;20060;-90
2022/09/05 13:23:31;;;;;;;0.00;0.00;;;;;;;;;;5016221;28;20053;-89
2022/09/05 13:26:02;;;;;;;0.00;0.00;;;;;;;;;;5033520;28;20041;-86
2022/09/05 13:28:40;;;;;;;0.00;0.00;;;;;;;;;;5015601;28;20049;-89
2022/09/05 13:31:07;;;;;;;0.00;0.00;;;;;;;;;;5016455;28;20053;-86
2022/09/05 13:33:45;;;;;;;0.00;0.00;;;;;;;;;;5015668;28;20049;-93
2022/09/05 13:36:20;;;;;;;0.00;0.00;;;;;;;;;;5033431;28;20045;-81
2022/09/05 13:39:03;;;;;;;0.00;0.00;;;;;;;;;;5033348;28;20083;-81
2022/09/05 13:41:30;;;;;;;0.00;0.00;;;;;;;;;;5033356;28;20438;-81
2022/09/05 13:44:00;;;;;;;0.00;0.00;;;;;;;;;;5033218;28;20094;-80
2022/09/05 13:46:38;;;;;;;0.00;0.00;;;;;;;;;;5008172;28;20512;-80
2022/09/05 13:49:04;;;;;;;0.00;0.00;;;;;;;;;;4993799;28;20046;-82
2022/09/05 13:51:36;;;;;;;0.00;0.00;;;;;;;;;;4993709;28;20043;-81
2022/09/05 13:54:22;;;;;;;0.00;0.00;;;;;;;;;;4992372;28;20241;-81
2022/09/05 13:56:55;;;;;;;0.00;0.00;;;;;;;;;;4992638;28;20042;-83
2022/09/05 13:59:23;;;;;;;0.00;0.00;;;;;;;;;;4993295;28;20187;-81
2022/09/05 14:01:58;;;;;;;0.00;0.00;;;;;;;;;;4992501;28;20053;-81
2022/09/05 14:04:24;;;;;;;;;;;;;;;;;;4992419;28;20100;-81
2022/09/05 14:07:09;;;;;;;0.00;0.00;;;;;;;;;;4992065;28;19917;-82
2022/09/05 14:09:41;;;;;;;0.00;0.00;;;;;;;;;;4992165;28;20053;-81
2022/09/05 14:12:11;;;;;;;0.00;0.00;;;;;;;;;;4993573;28;20054;-81
2022/09/05 14:14:49;;;;;;;0.00;0.00;;;;;;;;;;4991940;28;20168;-81
2022/09/05 14:17:15;;;;;;;0.00;0.00;;;;;;;;;;4993563;28;20039;-82
2022/09/05 14:22:32;;;;;;;0.00;0.00;;;;;;;;;;4993518;28;20046;-81
2022/09/05 14:24:58;;;;;;;0.00;0.00;;;;;;;;;;4993120;28;20049;-81
2022/09/05 14:27:24;;;;;;;0.00;0.00;;;;;;;;;;4993461;28;20038;-81
2022/09/05 14:29:51;;;;;;;0.00;0.00;;;;;;;;;;4992984;28;20281;-81
2022/09/05 14:32:17;;;;;;;0.00;0.00;;;;;;;;;;4993426;28;20042;-81
2022/09/05 14:35:01;;;;;;;0.00;0.00;;;;;;;;;;4992059;28;20092;-81
2022/09/05 14:37:45;;;;;;;0.00;0.00;;;;;;;;;;4992001;28;20042;-81
2022/09/05 14:40:29;;;;;;;0.00;0.00;;;;;;;;;;4991720;28;20050;-81
2022/09/05 14:43:08;;;;;;;0.00;0.00;;;;;;;;;;4993486;28;20066;-82
2022/09/05 14:45:44;;;;;;;0.00;0.00;;;;;;;;;;4992087;28;20046;-81
2022/09/05 14:48:20;;;;;;;0.00;0.00;;;;;;;;;;5030809;28;20054;-82
2022/09/05 14:51:04;;;;;;;0.00;0.00;;;;;;;;;;5014589;28;20049;-82
2022/09/05 14:53:31;;;;;;;0.00;0.00;;;;;;;;;;5032630;28;20064;-81
2022/09/05 14:55:59;;;;;;;0.00;0.00;;;;;;;;;;5014446;28;20045;-81
2022/09/05 14:58:27;;;;;;;0.00;0.00;;;;;;;;;;5033140;28;20099;-81
2022/09/05 15:00:58;;;;;;;0.00;0.00;;;;;;;;;;5036192;28;20037;-81
2022/09/05 15:03:28;;;;;;;0.00;0.00;;;;;;;;;;5036262;28;20087;-81
2022/09/05 15:05:54;;;;;;;0.00;0.00;;;;;;;;;;5036194;28;20080;-81
2022/09/05 15:08:25;;;;;;;0.00;0.00;;;;;;;;;;5018228;28;20045;-80
2022/09/05 15:10:54;;;;;;;0.00;0.00;;;;;;;;;;5018023;28;20073;-81
2022/09/05 15:13:22;;;;;;;0.00;0.00;;;;;;;;;;5018280;28;20183;-82
2022/09/05 15:16:05;;;;;;;0.00;0.00;;;;;;;;;;5000486;28;20045;-81
2022/09/05 15:18:52;;;;;;;0.00;0.00;;;;;;;;;;5036037;28;20049;-81
2022/09/05 15:21:18;;;;;;;0.00;0.00;;;;;;;;;;5034538;28;20044;-81
2022/09/05 15:23:55;;;;;;;0.00;0.00;;;;;;;;;;5035957;28;20037;-81
2022/09/05 15:26:21;;;;;;;0.00;0.00;;;;;;;;;;5035428;28;20395;-81
2022/09/05 15:28:49;;;;;;;0.00;0.00;;;;;;;;;;5017867;28;20496;-81
2022/09/05 15:31:18;;;;;;;0.17;0.10;;;;;;;;;;5035377;28;20044;-82
2022/09/05 15:33:45;;;;;;;0.00;0.00;;;;;;;;;;5036195;28;20073;-82
2022/09/05 15:36:16;;;;;;;0.00;0.00;;;;;;;;;;5018181;28;20049;-82
2022/09/05 15:38:43;;;;;;;0.00;0.00;;;;;;;;;;5035756;28;20068;-83